sensor_id;sensor_type;location;lat;lon;timestamp;P1;durP1;ratioP1;P2;durP2;ratioP2
4810;SDS011;2419;51.276;6.472;2023-05-10T00:00:15;18.57;;;9.87;;
4810;SDS011;2419;51.276;6.472;2023-05-10T00:02:44;14.60;;;8.57;;
4810;SDS011;2419;51.276;6.472;2023-05-10T00:05:12;15.03;;;8.53;;
4810;SDS011;2419;51.276;6.472;2023-05-10T00:07:40;15.60;;;8.50;;
4810;SDS011;2419;51.276;6.472;2023-05-10T00:10:11;16.03;;;9.17;;
4810;SDS011;2419;51.276;6.472;2023-05-10T00:12:40;18.43;;;9.73;;
4810;SDS011;2419;51.276;6.472;2023-05-10T00:15:10;18.80;;;9.77;;
4810;SDS011;2419;51.276;6.472;2023-05-10T00:17:38;14.57;;;9.27;;
4810;SDS011;2419;51.276;6.472;2023-05-10T00:20:06;15.20;;;9.13;;
4810;SDS011;2419;51.276;6.472;2023-05-10T00:22:35;14.03;;;8.40;;
4810;SDS011;2419;51.276;6.472;2023-05-10T00:25:03;16.77;;;8.90;;
4810;SDS011;2419;51.276;6.472;2023-05-10T00:27:32;16.27;;;9.87;;
4810;SDS011;2419;51.276;6.472;2023-05-10T00:30:02;14.80;;;9.13;;
4810;SDS011;2419;51.276;6.472;2023-05-10T00:32:30;15.97;;;9.83;;
4810;SDS011;2419;51.276;6.472;2023-05-10T00:34:58;16.47;;;9.70;;
4810;SDS011;2419;51.276;6.472;2023-05-10T00:37:26;19.00;;;9.17;;
4810;SDS011;2419;51.276;6.472;2023-05-10T00:39:54;12.43;;;7.90;;
4810;SDS011;2419;51.276;6.472;2023-05-10T00:42:22;13.33;;;8.27;;
4810;SDS011;2419;51.276;6.472;2023-05-10T00:44:52;14.80;;;8.87;;
4810;SDS011;2419;51.276;6.472;2023-05-10T00:47:21;14.53;;;8.27;;
4810;SDS011;2419;51.276;6.472;2023-05-10T00:49:50;14.03;;;8.10;;
4810;SDS011;2419;51.276;6.472;2023-05-10T00:52:18;16.90;;;9.00;;
4810;SDS011;2419;51.276;6.472;2023-05-10T00:54:46;12.87;;;7.83;;
4810;SDS011;2419;51.276;6.472;2023-05-10T00:57:15;14.20;;;7.60;;
4810;SDS011;2419;51.276;6.472;2023-05-10T00:59:43;15.23;;;7.90;;
4810;SDS011;2419;51.276;6.472;2023-05-10T01:02:12;14.40;;;8.50;;
4810;SDS011;2419;51.276;6.472;2023-05-10T01:04:42;11.73;;;6.67;;
4810;SDS011;2419;51.276;6.472;2023-05-10T01:07:10;10.87;;;6.70;;
4810;SDS011;2419;51.276;6.472;2023-05-10T01:09:38;11.60;;;6.50;;
4810;SDS011;2419;51.276;6.472;2023-05-10T01:12:06;10.67;;;6.37;;
4810;SDS011;2419;51.276;6.472;2023-05-10T01:14:35;9.50;;;5.67;;
4810;SDS011;2419;51.276;6.472;2023-05-10T01:17:03;14.73;;;7.90;;
4810;SDS011;2419;51.276;6.472;2023-05-10T01:19:33;11.57;;;7.40;;
4810;SDS011;2419;51.276;6.472;2023-05-10T01:22:07;13.53;;;7.10;;
4810;SDS011;2419;51.276;6.472;2023-05-10T01:24:59;9.30;;;6.00;;
4810;SDS011;2419;51.276;6.472;2023-05-10T01:30:54;11.47;;;5.60;;
4810;SDS011;2419;51.276;6.472;2023-05-10T01:33:52;9.73;;;5.60;;
4810;SDS011;2419;51.276;6.472;2023-05-10T01:36:26;7.90;;;5.10;;
4810;SDS011;2419;51.276;6.472;2023-05-10T01:38:59;9.53;;;6.10;;
4810;SDS011;2419;51.276;6.472;2023-05-10T01:41:36;10.60;;;5.50;;
4810;SDS011;2419;51.276;6.472;2023-05-10T01:44:14;16.63;;;6.17;;
4810;SDS011;2419;51.276;6.472;2023-05-10T01:46:47;12.90;;;5.97;;
4810;SDS011;2419;51.276;6.472;2023-05-10T01:49:23;9.50;;;6.70;;
4810;SDS011;2419;51.276;6.472;2023-05-10T01:51:53;10.80;;;6.37;;
4810;SDS011;2419;51.276;6.472;2023-05-10T01:54:26;8.20;;;5.57;;
4810;SDS011;2419;51.276;6.472;2023-05-10T01:56:57;9.67;;;5.47;;
4810;SDS011;2419;51.276;6.472;2023-05-10T01:59:29;11.60;;;5.50;;
4810;SDS011;2419;51.276;6.472;2023-05-10T02:02:02;8.20;;;5.27;;
4810;SDS011;2419;51.276;6.472;2023-05-10T02:04:34;9.73;;;5.50;;
4810;SDS011;2419;51.276;6.472;2023-05-10T02:07:04;9.57;;;5.73;;
4810;SDS011;2419;51.276;6.472;2023-05-10T02:09:33;7.10;;;4.40;;
4810;SDS011;2419;51.276;6.472;2023-05-10T02:12:02;8.87;;;5.20;;
4810;SDS011;2419;51.276;6.472;2023-05-10T02:14:34;9.93;;;5.30;;
4810;SDS011;2419;51.276;6.472;2023-05-10T02:17:03;13.23;;;5.67;;
4810;SDS011;2419;51.276;6.472;2023-05-10T02:19:35;11.00;;;5.50;;
4810;SDS011;2419;51.276;6.472;2023-05-10T02:22:05;10.57;;;5.83;;
4810;SDS011;2419;51.276;6.472;2023-05-10T02:24:35;10.10;;;5.73;;
4810;SDS011;2419;51.276;6.472;2023-05-10T02:27:04;10.10;;;5.23;;
4810;SDS011;2419;51.276;6.472;2023-05-10T02:29:34;10.53;;;6.23;;
4810;SDS011;2419;51.276;6.472;2023-05-10T02:32:03;7.07;;;4.83;;
4810;SDS011;2419;51.276;6.472;2023-05-10T02:34:34;11.27;;;6.40;;
4810;SDS011;2419;51.276;6.472;2023-05-10T02:37:03;12.10;;;6.00;;
4810;SDS011;2419;51.276;6.472;2023-05-10T02:39:32;7.63;;;5.20;;
4810;SDS011;2419;51.276;6.472;2023-05-10T02:42:02;10.70;;;6.23;;
4810;SDS011;2419;51.276;6.472;2023-05-10T02:44:32;17.50;;;7.50;;
4810;SDS011;2419;51.276;6.472;2023-05-10T02:47:01;10.53;;;6.33;;
4810;SDS011;2419;51.276;6.472;2023-05-10T02:49:30;14.87;;;6.80;;
4810;SDS011;2419;51.276;6.472;2023-05-10T02:52:00;12.63;;;7.20;;
4810;SDS011;2419;51.276;6.472;2023-05-10T02:54:31;8.60;;;6.40;;
4810;SDS011;2419;51.276;6.472;2023-05-10T02:57:03;10.67;;;6.77;;
4810;SDS011;2419;51.276;6.472;2023-05-10T02:59:33;12.63;;;6.73;;
4810;SDS011;2419;51.276;6.472;2023-05-10T03:02:01;11.00;;;6.93;;
4810;SDS011;2419;51.276;6.472;2023-05-10T03:04:30;14.00;;;7.00;;
4810;SDS011;2419;51.276;6.472;2023-05-10T03:06:59;11.00;;;6.77;;
4810;SDS011;2419;51.276;6.472;2023-05-10T03:09:27;13.60;;;7.30;;
4810;SDS011;2419;51.276;6.472;2023-05-10T03:11:59;11.10;;;6.90;;
4810;SDS011;2419;51.276;6.472;2023-05-10T03:14:34;13.73;;;6.60;;
4810;SDS011;2419;51.276;6.472;2023-05-10T03:17:18;15.83;;;7.30;;
4810;SDS011;2419;51.276;6.472;2023-05-10T03:19:52;14.00;;;8.90;;
4810;SDS011;2419;51.276;6.472;2023-05-10T03:22:25;18.60;;;9.00;;
4810;SDS011;2419;51.276;6.472;2023-05-10T03:24:57;15.07;;;8.33;;
4810;SDS011;2419;51.276;6.472;2023-05-10T03:27:32;17.97;;;9.23;;
4810;SDS011;2419;51.276;6.472;2023-05-10T03:30:02;14.13;;;8.20;;
4810;SDS011;2419;51.276;6.472;2023-05-10T03:32:32;20.20;;;10.83;;
4810;SDS011;2419;51.276;6.472;2023-05-10T03:35:01;18.77;;;9.17;;
4810;SDS011;2419;51.276;6.472;2023-05-10T03:37:35;26.23;;;12.43;;
4810;SDS011;2419;51.276;6.472;2023-05-10T03:40:04;38.80;;;12.33;;
4810;SDS011;2419;51.276;6.472;2023-05-10T03:42:35;23.33;;;11.83;;
4810;SDS011;2419;51.276;6.472;2023-05-10T03:45:03;23.07;;;11.60;;
4810;SDS011;2419;51.276;6.472;2023-05-10T03:47:31;30.43;;;12.20;;
4810;SDS011;2419;51.276;6.472;2023-05-10T03:50:00;23.67;;;11.60;;
4810;SDS011;2419;51.276;6.472;2023-05-10T03:52:28;28.10;;;12.83;;
4810;SDS011;2419;51.276;6.472;2023-05-10T03:54:58;21.77;;;11.50;;
4810;SDS011;2419;51.276;6.472;2023-05-10T03:57:26;23.47;;;11.50;;
4810;SDS011;2419;51.276;6.472;2023-05-10T03:59:54;28.40;;;13.93;;
4810;SDS011;2419;51.276;6.472;2023-05-10T04:02:22;28.90;;;13.60;;
4810;SDS011;2419;51.276;6.472;2023-05-10T04:04:51;26.57;;;11.93;;
4810;SDS011;2419;51.276;6.472;2023-05-10T04:07:19;29.87;;;13.13;;
4810;SDS011;2419;51.276;6.472;2023-05-10T04:09:47;34.30;;;14.60;;
4810;SDS011;2419;51.276;6.472;2023-05-10T04:12:16;25.07;;;11.83;;
4810;SDS011;2419;51.276;6.472;2023-05-10T04:14:44;30.27;;;14.40;;
4810;SDS011;2419;51.276;6.472;2023-05-10T04:17:12;34.00;;;13.53;;
4810;SDS011;2419;51.276;6.472;2023-05-10T04:19:40;30.63;;;14.30;;
4810;SDS011;2419;51.276;6.472;2023-05-10T04:22:08;35.13;;;14.07;;
4810;SDS011;2419;51.276;6.472;2023-05-10T04:24:36;29.43;;;13.80;;
4810;SDS011;2419;51.276;6.472;2023-05-10T04:27:04;39.87;;;16.20;;
4810;SDS011;2419;51.276;6.472;2023-05-10T04:29:33;32.83;;;14.60;;
4810;SDS011;2419;51.276;6.472;2023-05-10T04:32:01;32.90;;;15.00;;
4810;SDS011;2419;51.276;6.472;2023-05-10T04:34:30;37.67;;;16.03;;
4810;SDS011;2419;51.276;6.472;2023-05-10T04:37:00;33.50;;;14.50;;
4810;SDS011;2419;51.276;6.472;2023-05-10T04:39:28;33.33;;;15.23;;
4810;SDS011;2419;51.276;6.472;2023-05-10T04:41:56;33.93;;;15.73;;
4810;SDS011;2419;51.276;6.472;2023-05-10T04:44:24;34.63;;;15.70;;
4810;SDS011;2419;51.276;6.472;2023-05-10T04:46:53;33.00;;;17.20;;
4810;SDS011;2419;51.276;6.472;2023-05-10T04:49:21;29.60;;;14.43;;
4810;SDS011;2419;51.276;6.472;2023-05-10T04:51:49;33.17;;;15.30;;
4810;SDS011;2419;51.276;6.472;2023-05-10T04:54:17;28.30;;;13.90;;
4810;SDS011;2419;51.276;6.472;2023-05-10T04:56:45;32.07;;;15.80;;
4810;SDS011;2419;51.276;6.472;2023-05-10T04:59:13;32.07;;;15.80;;
4810;SDS011;2419;51.276;6.472;2023-05-10T05:01:41;38.83;;;16.07;;
4810;SDS011;2419;51.276;6.472;2023-05-10T05:04:10;33.10;;;14.30;;
4810;SDS011;2419;51.276;6.472;2023-05-10T05:06:38;31.07;;;15.30;;
4810;SDS011;2419;51.276;6.472;2023-05-10T05:09:06;26.50;;;13.53;;
4810;SDS011;2419;51.276;6.472;2023-05-10T05:11:36;28.90;;;13.97;;
4810;SDS011;2419;51.276;6.472;2023-05-10T05:14:04;29.87;;;13.73;;
4810;SDS011;2419;51.276;6.472;2023-05-10T05:16:32;32.53;;;14.03;;
4810;SDS011;2419;51.276;6.472;2023-05-10T05:19:00;25.57;;;12.70;;
4810;SDS011;2419;51.276;6.472;2023-05-10T05:21:30;32.80;;;14.93;;
4810;SDS011;2419;51.276;6.472;2023-05-10T05:23:58;28.23;;;13.20;;
4810;SDS011;2419;51.276;6.472;2023-05-10T05:26:27;34.53;;;13.20;;
4810;SDS011;2419;51.276;6.472;2023-05-10T05:28:55;24.83;;;12.27;;
4810;SDS011;2419;51.276;6.472;2023-05-10T05:31:23;25.60;;;12.47;;
4810;SDS011;2419;51.276;6.472;2023-05-10T05:33:51;27.40;;;13.53;;
4810;SDS011;2419;51.276;6.472;2023-05-10T05:36:19;35.00;;;14.27;;
4810;SDS011;2419;51.276;6.472;2023-05-10T05:38:48;28.33;;;13.03;;
4810;SDS011;2419;51.276;6.472;2023-05-10T05:41:16;33.63;;;14.77;;
4810;SDS011;2419;51.276;6.472;2023-05-10T05:43:44;35.73;;;13.60;;
4810;SDS011;2419;51.276;6.472;2023-05-10T05:46:12;35.70;;;14.60;;
4810;SDS011;2419;51.276;6.472;2023-05-10T05:48:40;33.13;;;14.33;;
4810;SDS011;2419;51.276;6.472;2023-05-10T05:51:08;41.80;;;16.03;;
4810;SDS011;2419;51.276;6.472;2023-05-10T05:53:36;32.83;;;14.40;;
4810;SDS011;2419;51.276;6.472;2023-05-10T05:56:06;33.97;;;15.20;;
4810;SDS011;2419;51.276;6.472;2023-05-10T05:58:35;33.70;;;15.10;;
4810;SDS011;2419;51.276;6.472;2023-05-10T06:01:03;29.57;;;13.03;;
4810;SDS011;2419;51.276;6.472;2023-05-10T06:03:31;38.90;;;14.90;;
4810;SDS011;2419;51.276;6.472;2023-05-10T06:06:00;33.93;;;15.17;;
4810;SDS011;2419;51.276;6.472;2023-05-10T06:08:27;34.60;;;16.13;;
4810;SDS011;2419;51.276;6.472;2023-05-10T06:10:55;35.53;;;14.43;;
4810;SDS011;2419;51.276;6.472;2023-05-10T06:13:25;32.00;;;13.73;;
4810;SDS011;2419;51.276;6.472;2023-05-10T06:15:55;40.27;;;14.87;;
4810;SDS011;2419;51.276;6.472;2023-05-10T06:18:23;38.53;;;15.00;;
4810;SDS011;2419;51.276;6.472;2023-05-10T06:20:51;38.10;;;16.27;;
4810;SDS011;2419;51.276;6.472;2023-05-10T06:23:19;49.17;;;16.73;;
4810;SDS011;2419;51.276;6.472;2023-05-10T06:25:48;35.70;;;15.90;;
4810;SDS011;2419;51.276;6.472;2023-05-10T06:28:16;41.47;;;16.30;;
4810;SDS011;2419;51.276;6.472;2023-05-10T06:30:45;38.93;;;15.23;;
4810;SDS011;2419;51.276;6.472;2023-05-10T06:33:14;28.93;;;12.80;;
4810;SDS011;2419;51.276;6.472;2023-05-10T06:35:42;31.73;;;14.20;;
4810;SDS011;2419;51.276;6.472;2023-05-10T06:38:10;27.87;;;12.10;;
4810;SDS011;2419;51.276;6.472;2023-05-10T06:40:40;27.43;;;12.40;;
4810;SDS011;2419;51.276;6.472;2023-05-10T06:43:08;34.97;;;12.70;;
4810;SDS011;2419;51.276;6.472;2023-05-10T06:45:36;30.80;;;13.80;;
4810;SDS011;2419;51.276;6.472;2023-05-10T06:48:06;23.27;;;11.63;;
4810;SDS011;2419;51.276;6.472;2023-05-10T06:50:34;29.67;;;13.97;;
4810;SDS011;2419;51.276;6.472;2023-05-10T06:53:02;27.93;;;12.77;;
4810;SDS011;2419;51.276;6.472;2023-05-10T06:55:30;30.87;;;13.13;;
4810;SDS011;2419;51.276;6.472;2023-05-10T06:57:58;44.93;;;16.17;;
4810;SDS011;2419;51.276;6.472;2023-05-10T07:00:26;34.43;;;16.13;;
4810;SDS011;2419;51.276;6.472;2023-05-10T07:02:54;42.80;;;16.40;;
4810;SDS011;2419;51.276;6.472;2023-05-10T07:05:24;38.13;;;15.80;;
4810;SDS011;2419;51.276;6.472;2023-05-10T07:07:54;36.03;;;14.97;;
4810;SDS011;2419;51.276;6.472;2023-05-10T07:10:22;47.73;;;17.67;;
4810;SDS011;2419;51.276;6.472;2023-05-10T07:12:50;47.40;;;17.27;;
4810;SDS011;2419;51.276;6.472;2023-05-10T07:15:18;35.50;;;15.47;;
4810;SDS011;2419;51.276;6.472;2023-05-10T07:17:46;39.53;;;16.87;;
4810;SDS011;2419;51.276;6.472;2023-05-10T07:20:15;40.17;;;17.90;;
4810;SDS011;2419;51.276;6.472;2023-05-10T07:22:44;37.30;;;17.43;;
4810;SDS011;2419;51.276;6.472;2023-05-10T07:25:12;34.50;;;16.67;;
4810;SDS011;2419;51.276;6.472;2023-05-10T07:27:41;33.17;;;15.27;;
4810;SDS011;2419;51.276;6.472;2023-05-10T07:30:09;35.90;;;15.90;;
4810;SDS011;2419;51.276;6.472;2023-05-10T07:32:38;31.53;;;14.10;;
4810;SDS011;2419;51.276;6.472;2023-05-10T07:35:08;34.10;;;15.27;;
4810;SDS011;2419;51.276;6.472;2023-05-10T07:37:36;31.67;;;16.23;;
4810;SDS011;2419;51.276;6.472;2023-05-10T07:40:09;30.33;;;15.63;;
4810;SDS011;2419;51.276;6.472;2023-05-10T07:42:37;28.67;;;13.43;;
4810;SDS011;2419;51.276;6.472;2023-05-10T07:45:05;40.83;;;15.80;;
4810;SDS011;2419;51.276;6.472;2023-05-10T07:47:34;30.23;;;14.60;;
4810;SDS011;2419;51.276;6.472;2023-05-10T07:50:02;30.33;;;13.57;;
4810;SDS011;2419;51.276;6.472;2023-05-10T07:52:31;28.57;;;13.43;;
4810;SDS011;2419;51.276;6.472;2023-05-10T07:54:59;31.50;;;14.00;;
4810;SDS011;2419;51.276;6.472;2023-05-10T07:57:28;29.37;;;14.03;;
4810;SDS011;2419;51.276;6.472;2023-05-10T07:59:57;29.70;;;13.83;;
4810;SDS011;2419;51.276;6.472;2023-05-10T08:02:25;28.87;;;14.10;;
4810;SDS011;2419;51.276;6.472;2023-05-10T08:04:53;23.80;;;13.60;;
4810;SDS011;2419;51.276;6.472;2023-05-10T08:07:22;24.37;;;13.70;;
4810;SDS011;2419;51.276;6.472;2023-05-10T08:09:51;26.40;;;13.50;;
4810;SDS011;2419;51.276;6.472;2023-05-10T08:12:19;29.03;;;12.67;;
4810;SDS011;2419;51.276;6.472;2023-05-10T08:14:50;23.70;;;11.50;;
4810;SDS011;2419;51.276;6.472;2023-05-10T08:17:18;26.57;;;12.30;;
4810;SDS011;2419;51.276;6.472;2023-05-10T08:19:48;24.40;;;12.90;;
4810;SDS011;2419;51.276;6.472;2023-05-10T08:22:16;22.93;;;11.33;;
4810;SDS011;2419;51.276;6.472;2023-05-10T08:24:44;20.07;;;11.97;;
4810;SDS011;2419;51.276;6.472;2023-05-10T08:27:12;27.73;;;12.93;;
4810;SDS011;2419;51.276;6.472;2023-05-10T08:29:40;23.93;;;11.30;;
4810;SDS011;2419;51.276;6.472;2023-05-10T08:32:17;20.40;;;12.30;;
4810;SDS011;2419;51.276;6.472;2023-05-10T08:34:45;19.37;;;11.73;;
4810;SDS011;2419;51.276;6.472;2023-05-10T08:37:13;21.03;;;11.90;;
4810;SDS011;2419;51.276;6.472;2023-05-10T08:39:41;20.03;;;10.77;;
4810;SDS011;2419;51.276;6.472;2023-05-10T08:42:09;20.47;;;9.50;;
4810;SDS011;2419;51.276;6.472;2023-05-10T08:44:38;22.13;;;11.27;;
4810;SDS011;2419;51.276;6.472;2023-05-10T08:47:06;17.03;;;10.23;;
4810;SDS011;2419;51.276;6.472;2023-05-10T08:49:35;16.07;;;10.07;;
4810;SDS011;2419;51.276;6.472;2023-05-10T08:52:04;20.23;;;10.00;;
4810;SDS011;2419;51.276;6.472;2023-05-10T08:54:34;18.90;;;8.80;;
4810;SDS011;2419;51.276;6.472;2023-05-10T08:57:02;17.40;;;9.67;;
4810;SDS011;2419;51.276;6.472;2023-05-10T08:59:31;17.33;;;9.60;;
4810;SDS011;2419;51.276;6.472;2023-05-10T09:01:59;17.90;;;9.60;;
4810;SDS011;2419;51.276;6.472;2023-05-10T09:04:28;13.97;;;9.20;;
4810;SDS011;2419;51.276;6.472;2023-05-10T09:06:58;14.00;;;8.47;;
4810;SDS011;2419;51.276;6.472;2023-05-10T09:09:27;16.33;;;9.10;;
4810;SDS011;2419;51.276;6.472;2023-05-10T09:11:56;15.27;;;7.30;;
4810;SDS011;2419;51.276;6.472;2023-05-10T09:14:24;18.13;;;9.67;;
4810;SDS011;2419;51.276;6.472;2023-05-10T09:16:53;18.30;;;8.13;;
4810;SDS011;2419;51.276;6.472;2023-05-10T09:19:22;13.10;;;7.63;;
4810;SDS011;2419;51.276;6.472;2023-05-10T09:21:50;17.67;;;9.53;;
4810;SDS011;2419;51.276;6.472;2023-05-10T09:24:19;13.37;;;7.53;;
4810;SDS011;2419;51.276;6.472;2023-05-10T09:26:53;15.10;;;8.20;;
4810;SDS011;2419;51.276;6.472;2023-05-10T09:29:24;18.60;;;9.30;;
4810;SDS011;2419;51.276;6.472;2023-05-10T09:31:52;17.57;;;8.70;;
4810;SDS011;2419;51.276;6.472;2023-05-10T09:34:28;11.60;;;7.80;;
4810;SDS011;2419;51.276;6.472;2023-05-10T09:36:57;13.13;;;7.80;;
4810;SDS011;2419;51.276;6.472;2023-05-10T09:39:32;13.13;;;9.00;;
4810;SDS011;2419;51.276;6.472;2023-05-10T09:42:02;22.80;;;10.53;;
4810;SDS011;2419;51.276;6.472;2023-05-10T09:44:31;20.43;;;10.97;;
4810;SDS011;2419;51.276;6.472;2023-05-10T09:47:00;13.60;;;8.03;;
4810;SDS011;2419;51.276;6.472;2023-05-10T09:49:28;18.87;;;9.53;;
4810;SDS011;2419;51.276;6.472;2023-05-10T09:51:59;20.73;;;10.27;;
4810;SDS011;2419;51.276;6.472;2023-05-10T09:54:28;15.17;;;8.30;;
4810;SDS011;2419;51.276;6.472;2023-05-10T09:56:58;18.33;;;10.00;;
4810;SDS011;2419;51.276;6.472;2023-05-10T09:59:26;17.53;;;10.30;;
4810;SDS011;2419;51.276;6.472;2023-05-10T10:01:55;16.67;;;8.83;;
4810;SDS011;2419;51.276;6.472;2023-05-10T10:04:24;15.00;;;9.57;;
4810;SDS011;2419;51.276;6.472;2023-05-10T10:07:00;13.73;;;7.80;;
4810;SDS011;2419;51.276;6.472;2023-05-10T10:09:29;20.33;;;10.10;;
4810;SDS011;2419;51.276;6.472;2023-05-10T10:11:59;18.07;;;9.70;;
4810;SDS011;2419;51.276;6.472;2023-05-10T10:14:27;16.13;;;10.23;;
4810;SDS011;2419;51.276;6.472;2023-05-10T10:16:56;16.40;;;8.70;;
4810;SDS011;2419;51.276;6.472;2023-05-10T10:19:30;17.93;;;9.07;;
4810;SDS011;2419;51.276;6.472;2023-05-10T10:22:00;18.23;;;9.07;;
4810;SDS011;2419;51.276;6.472;2023-05-10T10:24:29;16.97;;;9.07;;
4810;SDS011;2419;51.276;6.472;2023-05-10T10:26:59;13.37;;;8.00;;
4810;SDS011;2419;51.276;6.472;2023-05-10T10:29:52;16.73;;;9.47;;
4810;SDS011;2419;51.276;6.472;2023-05-10T10:32:30;17.80;;;8.93;;
4810;SDS011;2419;51.276;6.472;2023-05-10T10:35:07;20.43;;;9.37;;
4810;SDS011;2419;51.276;6.472;2023-05-10T10:37:45;18.37;;;10.10;;
4810;SDS011;2419;51.276;6.472;2023-05-10T10:40:24;20.87;;;11.27;;
4810;SDS011;2419;51.276;6.472;2023-05-10T10:43:21;21.33;;;11.80;;
4810;SDS011;2419;51.276;6.472;2023-05-10T10:46:09;19.97;;;10.57;;
4810;SDS011;2419;51.276;6.472;2023-05-10T10:48:38;18.40;;;11.00;;
4810;SDS011;2419;51.276;6.472;2023-05-10T10:51:07;16.90;;;8.97;;
4810;SDS011;2419;51.276;6.472;2023-05-10T10:53:38;18.13;;;9.47;;
4810;SDS011;2419;51.276;6.472;2023-05-10T10:56:07;15.07;;;9.73;;
4810;SDS011;2419;51.276;6.472;2023-05-10T10:58:38;14.40;;;9.00;;
4810;SDS011;2419;51.276;6.472;2023-05-10T11:01:16;19.93;;;11.17;;
4810;SDS011;2419;51.276;6.472;2023-05-10T11:06:44;17.33;;;10.73;;
4810;SDS011;2419;51.276;6.472;2023-05-10T11:09:12;18.67;;;10.03;;
4810;SDS011;2419;51.276;6.472;2023-05-10T11:11:51;13.80;;;9.30;;
4810;SDS011;2419;51.276;6.472;2023-05-10T11:14:23;15.83;;;8.20;;
4810;SDS011;2419;51.276;6.472;2023-05-10T11:16:51;13.40;;;7.73;;
4810;SDS011;2419;51.276;6.472;2023-05-10T11:19:19;12.50;;;7.83;;
4810;SDS011;2419;51.276;6.472;2023-05-10T11:21:48;12.07;;;8.97;;
4810;SDS011;2419;51.276;6.472;2023-05-10T11:24:18;12.57;;;7.83;;
4810;SDS011;2419;51.276;6.472;2023-05-10T11:26:49;13.87;;;8.13;;
4810;SDS011;2419;51.276;6.472;2023-05-10T11:29:18;14.93;;;9.20;;
4810;SDS011;2419;51.276;6.472;2023-05-10T11:31:48;13.70;;;8.03;;
4810;SDS011;2419;51.276;6.472;2023-05-10T11:34:23;16.17;;;8.87;;
4810;SDS011;2419;51.276;6.472;2023-05-10T11:36:52;15.33;;;8.40;;
4810;SDS011;2419;51.276;6.472;2023-05-10T11:39:21;22.77;;;9.70;;
4810;SDS011;2419;51.276;6.472;2023-05-10T11:41:53;16.80;;;9.60;;
4810;SDS011;2419;51.276;6.472;2023-05-10T11:44:22;15.67;;;9.17;;
4810;SDS011;2419;51.276;6.472;2023-05-10T11:46:51;14.83;;;9.20;;
4810;SDS011;2419;51.276;6.472;2023-05-10T11:49:19;23.33;;;9.83;;
4810;SDS011;2419;51.276;6.472;2023-05-10T11:51:50;13.10;;;8.77;;
4810;SDS011;2419;51.276;6.472;2023-05-10T11:54:18;13.13;;;8.97;;
4810;SDS011;2419;51.276;6.472;2023-05-10T11:56:46;14.20;;;9.57;;
4810;SDS011;2419;51.276;6.472;2023-05-10T11:59:14;14.23;;;9.47;;
4810;SDS011;2419;51.276;6.472;2023-05-10T12:01:42;13.93;;;9.23;;
4810;SDS011;2419;51.276;6.472;2023-05-10T12:04:11;14.13;;;9.30;;
4810;SDS011;2419;51.276;6.472;2023-05-10T12:06:40;20.47;;;9.67;;
4810;SDS011;2419;51.276;6.472;2023-05-10T12:09:08;18.50;;;9.27;;
4810;SDS011;2419;51.276;6.472;2023-05-10T12:11:37;13.83;;;8.90;;
4810;SDS011;2419;51.276;6.472;2023-05-10T12:14:09;17.17;;;10.53;;
4810;SDS011;2419;51.276;6.472;2023-05-10T12:16:37;17.20;;;10.67;;
4810;SDS011;2419;51.276;6.472;2023-05-10T12:19:06;18.60;;;11.27;;
4810;SDS011;2419;51.276;6.472;2023-05-10T12:21:35;15.80;;;9.17;;
4810;SDS011;2419;51.276;6.472;2023-05-10T12:24:05;17.43;;;10.97;;
4810;SDS011;2419;51.276;6.472;2023-05-10T12:26:33;17.00;;;10.90;;
4810;SDS011;2419;51.276;6.472;2023-05-10T12:31:49;16.33;;;11.30;;
4810;SDS011;2419;51.276;6.472;2023-05-10T12:34:22;20.10;;;10.73;;
4810;SDS011;2419;51.276;6.472;2023-05-10T12:36:53;16.03;;;10.63;;
4810;SDS011;2419;51.276;6.472;2023-05-10T12:39:22;22.73;;;12.00;;
4810;SDS011;2419;51.276;6.472;2023-05-10T12:41:50;20.23;;;12.07;;
4810;SDS011;2419;51.276;6.472;2023-05-10T12:44:18;22.47;;;11.77;;
4810;SDS011;2419;51.276;6.472;2023-05-10T12:46:46;18.00;;;10.70;;
4810;SDS011;2419;51.276;6.472;2023-05-10T12:49:15;18.50;;;11.57;;
4810;SDS011;2419;51.276;6.472;2023-05-10T12:51:43;19.50;;;11.63;;
4810;SDS011;2419;51.276;6.472;2023-05-10T12:54:12;20.07;;;11.50;;
4810;SDS011;2419;51.276;6.472;2023-05-10T12:56:40;21.37;;;13.13;;
4810;SDS011;2419;51.276;6.472;2023-05-10T12:59:09;16.70;;;9.77;;
4810;SDS011;2419;51.276;6.472;2023-05-10T13:01:37;16.23;;;10.10;;
4810;SDS011;2419;51.276;6.472;2023-05-10T13:04:05;18.67;;;10.57;;
4810;SDS011;2419;51.276;6.472;2023-05-10T13:06:33;19.60;;;10.67;;
4810;SDS011;2419;51.276;6.472;2023-05-10T13:09:01;18.27;;;11.27;;
4810;SDS011;2419;51.276;6.472;2023-05-10T13:11:30;19.87;;;10.40;;
4810;SDS011;2419;51.276;6.472;2023-05-10T13:13:59;15.83;;;10.13;;
4810;SDS011;2419;51.276;6.472;2023-05-10T13:16:27;17.57;;;10.90;;
4810;SDS011;2419;51.276;6.472;2023-05-10T13:18:55;16.17;;;10.47;;
4810;SDS011;2419;51.276;6.472;2023-05-10T13:21:23;14.73;;;9.47;;
4810;SDS011;2419;51.276;6.472;2023-05-10T13:23:51;15.27;;;10.30;;
4810;SDS011;2419;51.276;6.472;2023-05-10T13:26:20;15.67;;;9.50;;
4810;SDS011;2419;51.276;6.472;2023-05-10T13:28:49;14.60;;;9.77;;
4810;SDS011;2419;51.276;6.472;2023-05-10T13:31:18;15.03;;;9.57;;
4810;SDS011;2419;51.276;6.472;2023-05-10T13:33:46;15.30;;;10.13;;
4810;SDS011;2419;51.276;6.472;2023-05-10T13:36:14;15.93;;;8.43;;
4810;SDS011;2419;51.276;6.472;2023-05-10T13:38:42;15.83;;;8.03;;
4810;SDS011;2419;51.276;6.472;2023-05-10T13:41:10;11.20;;;6.80;;
4810;SDS011;2419;51.276;6.472;2023-05-10T13:43:38;10.60;;;7.23;;
4810;SDS011;2419;51.276;6.472;2023-05-10T13:46:08;13.70;;;8.80;;
4810;SDS011;2419;51.276;6.472;2023-05-10T13:48:36;14.20;;;7.90;;
4810;SDS011;2419;51.276;6.472;2023-05-10T13:51:04;11.60;;;7.50;;
4810;SDS011;2419;51.276;6.472;2023-05-10T13:53:32;11.60;;;6.43;;
4810;SDS011;2419;51.276;6.472;2023-05-10T13:56:00;9.47;;;6.70;;
4810;SDS011;2419;51.276;6.472;2023-05-10T13:58:29;8.93;;;6.53;;
4810;SDS011;2419;51.276;6.472;2023-05-10T14:00:57;13.60;;;6.10;;
4810;SDS011;2419;51.276;6.472;2023-05-10T14:03:26;9.50;;;5.70;;
4810;SDS011;2419;51.276;6.472;2023-05-10T14:05:54;13.70;;;6.23;;
4810;SDS011;2419;51.276;6.472;2023-05-10T14:08:22;12.83;;;6.93;;
4810;SDS011;2419;51.276;6.472;2023-05-10T14:10:50;8.27;;;5.90;;
4810;SDS011;2419;51.276;6.472;2023-05-10T14:13:19;12.70;;;7.67;;
4810;SDS011;2419;51.276;6.472;2023-05-10T14:15:47;9.23;;;6.27;;
4810;SDS011;2419;51.276;6.472;2023-05-10T14:18:15;10.20;;;6.10;;
4810;SDS011;2419;51.276;6.472;2023-05-10T14:20:44;13.50;;;5.83;;
4810;SDS011;2419;51.276;6.472;2023-05-10T14:23:12;7.07;;;5.10;;
4810;SDS011;2419;51.276;6.472;2023-05-10T14:25:40;8.57;;;5.80;;
4810;SDS011;2419;51.276;6.472;2023-05-10T14:28:09;9.07;;;5.47;;
4810;SDS011;2419;51.276;6.472;2023-05-10T14:30:38;6.70;;;4.87;;
4810;SDS011;2419;51.276;6.472;2023-05-10T14:33:06;7.70;;;5.03;;
4810;SDS011;2419;51.276;6.472;2023-05-10T14:35:34;9.30;;;5.63;;
4810;SDS011;2419;51.276;6.472;2023-05-10T14:38:03;9.87;;;5.60;;
4810;SDS011;2419;51.276;6.472;2023-05-10T14:40:31;9.70;;;5.30;;
4810;SDS011;2419;51.276;6.472;2023-05-10T14:42:59;7.60;;;5.90;;
4810;SDS011;2419;51.276;6.472;2023-05-10T14:45:28;7.13;;;5.20;;
4810;SDS011;2419;51.276;6.472;2023-05-10T14:47:56;8.87;;;6.50;;
4810;SDS011;2419;51.276;6.472;2023-05-10T14:50:25;7.00;;;5.03;;
4810;SDS011;2419;51.276;6.472;2023-05-10T14:53:04;8.87;;;6.00;;
4810;SDS011;2419;51.276;6.472;2023-05-10T14:55:32;12.10;;;7.20;;
4810;SDS011;2419;51.276;6.472;2023-05-10T14:58:01;10.17;;;5.90;;
4810;SDS011;2419;51.276;6.472;2023-05-10T15:00:29;6.93;;;5.40;;
4810;SDS011;2419;51.276;6.472;2023-05-10T15:02:58;9.93;;;6.40;;
4810;SDS011;2419;51.276;6.472;2023-05-10T15:05:27;8.70;;;5.60;;
4810;SDS011;2419;51.276;6.472;2023-05-10T15:07:55;9.00;;;5.53;;
4810;SDS011;2419;51.276;6.472;2023-05-10T15:10:25;14.00;;;7.70;;
4810;SDS011;2419;51.276;6.472;2023-05-10T15:12:53;10.07;;;6.50;;
4810;SDS011;2419;51.276;6.472;2023-05-10T15:15:21;10.73;;;5.80;;
4810;SDS011;2419;51.276;6.472;2023-05-10T15:17:49;8.67;;;5.73;;